< < Back
Terminal Aerodrome Forecast


Current Version              Previous Versions:   1  2  3  4  5  6  7  8  9  

Terminal Aerodrome Forecast

508
FTUS42 KFFC 011404 AAA
TAFATL
TAF AMD
KATL 011404Z 0114/0218 06009KT P6SM VCSH SCT040 BKN060
     FM012200 02006KT P6SM SCT050
     FM020100 35006KT P6SM FEW250
     FM021000 04005KT P6SM FEW250
     FM021600 07007KT P6SM FEW040=



Latest METAR

867
SAUS70 KWBC 012200 RRF
MTRATL
METAR KATL 012152Z 08008KT 10SM FEW060 SCT250 31/18 A2993 RMK AO2 SLP123
TCU DSNT SE T03110178 $


USA.gov is the U.S. government's official web portal to all federal, state and local government web resources and services.